Terminal Aerodrome Forecast
Issued by NWS

Home | Current Version | Previous Version | Text Only | Print | Product List | Glossary On
Versions: 1 2 3 4 5 6 7 8 9 10 11 12 13 14 15 16 17
000
FTUS43 KGRR 271700
TAFJXN
TAF
KJXN 271720Z 2718/2818 03008KT P6SM SCT025
      TEMPO 2718/2720 BKN022
     FM272300 VRB03KT P6SM SKC
     FM281400 17008KT P6SM BKN200=

USA.gov is the U.S. government's official web portal to all federal, state and local government web resources and services.